Time;durP1;ratioP1;P1;durP2;ratioP2;P2;SDS_P1;SDS_P2;PMS_P1;PMS_P2;Temp;Humidity;BMP_temperature;BMP_pressure;BME280_temperature;BME280_humidity;BME280_pressure;Samples;Min_cycle;Max_cycle;Signal;HPM_P1;HPM_P2
2022/03/03 05:15:22;;;;;;;6.28;4.53;;;-2.50;99.90;;;;;;5576081;23;20249;-70
2022/03/03 05:17:49;;;;;;;4.25;3.95;;;-2.50;99.90;;;;;;4995651;28;20214;-71
2022/03/03 05:20:16;;;;;;;7.68;4.65;;;-2.60;99.90;;;;;;4995991;28;20230;-71
2022/03/03 05:22:43;;;;;;;6.65;4.57;;;-2.50;99.90;;;;;;4995973;28;20225;-71
2022/03/03 05:25:11;;;;;;;6.60;5.05;;;-2.50;99.90;;;;;;4995967;28;20229;-71
2022/03/03 05:27:39;;;;;;;7.28;5.75;;;-2.50;99.90;;;;;;5020023;23;20673;-69
2022/03/03 05:30:09;;;;;;;9.60;6.32;;;-2.50;99.90;;;;;;4996458;28;20203;-70
2022/03/03 05:32:37;;;;;;;9.07;5.45;;;-2.50;99.90;;;;;;4995941;28;20194;-70
2022/03/03 05:35:05;;;;;;;6.10;5.45;;;-2.50;99.90;;;;;;4995932;28;20293;-70
2022/03/03 05:37:34;;;;;;;5.22;4.60;;;-2.50;99.90;;;;;;4995858;28;20219;-70
2022/03/03 05:40:01;;;;;;;5.30;4.43;;;-2.50;99.90;;;;;;4995952;28;20214;-70
2022/03/03 05:42:29;;;;;;;6.82;4.32;;;-2.50;99.90;;;;;;4995415;28;20313;-70
2022/03/03 05:44:56;;;;;;;5.57;4.88;;;-2.50;99.90;;;;;;4995947;28;20206;-70
2022/03/03 05:47:23;;;;;;;5.03;4.50;;;-2.50;99.90;;;;;;4995852;28;20625;-70
2022/03/03 05:49:52;;;;;;;5.10;4.10;;;-2.50;99.90;;;;;;4999596;28;20208;-72
2022/03/03 05:52:19;;;;;;;4.22;3.85;;;-2.50;99.90;;;;;;5006028;28;20199;-66
2022/03/03 05:54:46;;;;;;;5.75;4.35;;;-2.60;99.90;;;;;;4997336;28;20209;-66
2022/03/03 05:57:18;;;;;;;4.60;4.20;;;-2.60;99.90;;;;;;4996300;28;20227;-66
2022/03/03 05:59:48;;;;;;;4.63;4.05;;;-2.60;99.90;;;;;;4995690;28;20191;-69
2022/03/03 06:02:15;;;;;;;4.43;4.03;;;-2.60;99.90;;;;;;4995536;28;20199;-70
2022/03/03 06:04:41;;;;;;;4.18;3.78;;;-2.60;99.90;;;;;;4995136;28;20198;-70
2022/03/03 06:07:10;;;;;;;4.93;4.35;;;-2.60;99.90;;;;;;4995279;28;20237;-67
2022/03/03 06:09:38;;;;;;;4.68;3.90;;;-2.70;99.90;;;;;;4995238;28;20208;-67
2022/03/03 06:12:10;;;;;;;4.80;4.40;;;-2.70;99.90;;;;;;4995431;28;20229;-68
2022/03/03 06:14:42;;;;;;;4.53;3.75;;;-2.60;99.90;;;;;;4995395;28;20707;-67
2022/03/03 06:17:09;;;;;;;4.35;3.95;;;-2.60;99.90;;;;;;4995038;28;20597;-67
2022/03/03 06:19:41;;;;;;;4.63;4.03;;;-2.50;99.90;;;;;;4994724;28;20202;-67
2022/03/03 06:22:10;;;;;;;4.15;3.75;;;-2.50;99.90;;;;;;4994953;28;20590;-67
2022/03/03 06:24:38;;;;;;;4.38;3.97;;;-2.50;99.90;;;;;;4994704;28;20257;-67
2022/03/03 06:27:05;;;;;;;3.90;3.60;;;-2.40;99.90;;;;;;4994894;28;20237;-67
2022/03/03 06:29:33;;;;;;;3.95;3.58;;;-2.20;99.90;;;;;;4994893;28;20183;-67
2022/03/03 06:32:00;;;;;;;4.95;4.45;;;-1.90;99.90;;;;;;4994821;28;20208;-67
2022/03/03 06:34:26;;;;;;;6.05;5.00;;;-1.60;99.90;;;;;;4994466;28;20569;-67
2022/03/03 06:36:53;;;;;;;5.50;4.85;;;-1.20;99.90;;;;;;4994439;28;20207;-67
2022/03/03 06:39:22;;;;;;;4.78;4.22;;;-0.40;99.90;;;;;;4994688;28;20209;-67
2022/03/03 06:41:49;;;;;;;6.75;5.38;;;0.60;99.90;;;;;;4994662;28;20232;-67
2022/03/03 06:44:16;;;;;;;6.57;5.90;;;1.80;99.90;;;;;;4994548;28;20222;-67
2022/03/03 06:46:43;;;;;;;6.32;5.70;;;2.90;99.90;;;;;;4994495;28;20234;-67
2022/03/03 06:49:11;;;;;;;7.60;6.20;;;3.80;99.90;;;;;;4994225;28;20253;-67
2022/03/03 06:51:41;;;;;;;7.75;6.03;;;4.60;99.90;;;;;;4994498;28;20265;-67
2022/03/03 06:54:11;;;;;;;8.77;7.07;;;4.90;84.50;;;;;;4994182;28;20659;-69
2022/03/03 06:56:46;;;;;;;9.30;6.53;;;4.90;76.20;;;;;;4994005;28;20626;-69
2022/03/03 06:59:16;;;;;;;15.25;7.13;;;5.20;99.90;;;;;;4994527;28;20194;-69
2022/03/03 07:01:43;;;;;;;9.93;7.32;;;5.90;97.10;;;;;;4994437;28;20293;-68
2022/03/03 07:04:13;;;;;;;10.20;7.32;;;6.80;90.00;;;;;;4993977;28;20224;-68
2022/03/03 07:06:40;;;;;;;9.15;6.88;;;7.90;74.00;;;;;;4993762;28;20665;-69
2022/03/03 07:09:08;;;;;;;10.05;6.88;;;9.00;61.90;;;;;;4994265;28;20209;-69
2022/03/03 07:11:35;;;;;;;11.82;8.70;;;10.00;51.80;;;;;;4993891;28;20673;-69
2022/03/03 07:14:03;;;;;;;9.85;8.20;;;10.80;44.90;;;;;;4994162;28;20195;-69
2022/03/03 07:16:38;;;;;;;9.38;6.90;;;11.50;39.90;;;;;;4994176;28;20206;-69
2022/03/03 07:19:08;;;;;;;11.05;7.65;;;12.10;33.30;;;;;;4993892;28;20197;-69
2022/03/03 07:21:47;;;;;;;9.50;7.75;;;12.40;28.70;;;;;;4994183;28;20677;-68
2022/03/03 07:24:21;;;;;;;11.48;7.80;;;12.40;27.80;;;;;;4994030;28;20207;-68
2022/03/03 07:26:49;;;;;;;15.70;10.23;;;12.30;26.90;;;;;;4993901;28;20187;-68
2022/03/03 07:29:19;;;;;;;12.45;9.43;;;12.20;26.40;;;;;;4994158;28;20206;-68
2022/03/03 07:31:54;;;;;;;11.88;8.82;;;11.80;26.60;;;;;;4993842;28;20194;-68
2022/03/03 07:34:27;;;;;;;9.38;7.82;;;11.30;26.30;;;;;;4994054;28;20186;-68
2022/03/03 07:36:57;;;;;;;9.13;7.97;;;10.90;27.20;;;;;;4993798;28;20643;-68
2022/03/03 07:39:30;;;;;;;9.70;7.80;;;10.50;27.20;;;;;;4994126;28;20207;-68
2022/03/03 07:41:58;;;;;;;13.02;8.80;;;10.30;27.90;;;;;;4994846;28;20191;-68
2022/03/03 07:44:27;;;;;;;11.80;10.00;;;9.90;28.40;;;;;;4993626;28;20222;-68
2022/03/03 07:46:54;;;;;;;13.02;10.50;;;9.20;29.50;;;;;;4993915;28;20209;-68
2022/03/03 07:49:21;;;;;;;12.65;9.02;;;8.80;30.00;;;;;;4993811;28;20209;-68
2022/03/03 07:51:49;;;;;;;11.40;8.88;;;8.50;31.20;;;;;;4993552;28;20666;-68
2022/03/03 07:54:16;;;;;;;9.57;7.68;;;8.30;31.70;;;;;;4993956;28;20205;-68
2022/03/03 07:56:48;;;;;;;10.63;8.73;;;8.10;33.60;;;;;;4993727;28;20205;-68
2022/03/03 07:59:18;;;;;;;14.75;8.65;;;8.10;33.30;;;;;;4993627;28;20198;-68
2022/03/03 08:01:49;;;;;;;10.55;8.50;;;8.20;34.00;;;;;;4993996;28;20191;-68
2022/03/03 08:04:16;;;;;;;13.25;9.60;;;8.20;34.20;;;;;;4993547;28;20753;-68
2022/03/03 08:06:48;;;;;;;12.20;9.05;;;8.20;33.20;;;;;;4993746;28;20214;-69
2022/03/03 08:09:16;;;;;;;11.50;8.85;;;8.20;33.50;;;;;;4993881;28;20230;-69
2022/03/03 08:11:43;;;;;;;13.70;9.70;;;8.20;33.60;;;;;;4993701;28;20199;-69
2022/03/03 08:14:11;;;;;;;12.13;9.48;;;8.20;33.80;;;;;;4993750;28;20574;-69
2022/03/03 08:16:40;;;;;;;13.55;10.90;;;8.20;33.60;;;;;;4993514;28;20199;-69
2022/03/03 08:19:10;;;;;;;15.77;10.20;;;8.10;33.60;;;;;;4997590;28;20206;-69
2022/03/03 08:21:38;;;;;;;12.25;9.63;;;8.00;33.50;;;;;;4997357;28;20186;-69
2022/03/03 08:24:05;;;;;;;12.43;10.10;;;7.90;33.00;;;;;;4997456;28;20226;-69
2022/03/03 08:26:33;;;;;;;13.23;9.40;;;7.90;33.20;;;;;;4997505;28;20253;-67
2022/03/03 08:29:00;;;;;;;11.80;9.52;;;7.80;32.20;;;;;;4997014;28;20313;-68
2022/03/03 08:31:35;;;;;;;13.27;9.43;;;7.60;32.30;;;;;;4997324;28;20319;-69
2022/03/03 08:34:12;;;;;;;11.35;8.38;;;7.50;33.50;;;;;;4997496;28;20186;-69
2022/03/03 08:36:46;;;;;;;10.82;8.48;;;7.50;34.00;;;;;;4997243;28;20233;-69
2022/03/03 08:39:15;;;;;;;13.90;9.25;;;7.50;34.40;;;;;;4997304;28;20531;-69
2022/03/03 08:41:43;;;;;;;10.13;8.32;;;7.70;33.80;;;;;;4997191;28;20206;-69
2022/03/03 08:44:12;;;;;;;10.07;8.38;;;7.80;34.80;;;;;;4997088;28;20305;-69
2022/03/03 08:46:41;;;;;;;10.13;7.90;;;8.00;34.70;;;;;;4997007;28;20205;-69
2022/03/03 08:49:09;;;;;;;9.52;8.05;;;8.30;34.70;;;;;;4997065;28;20209;-69
2022/03/03 08:51:38;;;;;;;10.55;7.78;;;8.50;33.80;;;;;;4997031;28;20198;-69
2022/03/03 08:54:06;;;;;;;11.07;8.20;;;8.60;33.10;;;;;;4996916;28;20195;-69
2022/03/03 08:56:33;;;;;;;9.80;8.18;;;8.70;32.60;;;;;;4997250;28;20294;-69
2022/03/03 08:59:00;;;;;;;10.77;8.20;;;8.70;32.50;;;;;;4996826;28;20222;-69
2022/03/03 09:01:27;;;;;;;13.18;9.48;;;8.70;32.10;;;;;;4996842;28;20199;-69
2022/03/03 09:03:54;;;;;;;11.07;8.32;;;8.60;31.90;;;;;;4996394;28;20223;-69
2022/03/03 09:06:21;;;;;;;15.10;10.80;;;8.80;32.50;;;;;;4996772;28;20205;-69
2022/03/03 09:08:48;;;;;;;11.23;8.48;;;8.70;32.00;;;;;;4996685;28;20261;-70
2022/03/03 09:11:18;;;;;;;12.75;9.50;;;8.80;32.80;;;;;;4997708;28;20234;-69
2022/03/03 09:13:45;;;;;;;11.45;8.10;;;8.90;32.60;;;;;;4997999;28;20205;-70
2022/03/03 09:16:13;;;;;;;14.60;10.07;;;9.10;32.80;;;;;;4996884;28;20561;-69
2022/03/03 09:18:40;;;;;;;12.15;9.15;;;9.20;31.30;;;;;;4996487;28;20229;-69
2022/03/03 09:21:06;;;;;;;14.02;8.45;;;9.20;31.60;;;;;;4996504;28;20210;-69
2022/03/03 09:23:33;;;;;;;11.35;8.55;;;9.30;31.60;;;;;;4996252;28;20330;-69
2022/03/03 09:26:00;;;;;;;15.30;9.80;;;9.50;32.10;;;;;;4996004;28;20213;-69
2022/03/03 09:28:28;;;;;;;12.80;9.30;;;9.70;31.10;;;;;;4995056;28;20317;-69
2022/03/03 09:30:56;;;;;;;17.85;10.77;;;9.80;30.60;;;;;;4995881;28;20289;-69
2022/03/03 09:33:23;;;;;;;13.15;9.82;;;9.80;30.40;;;;;;4996236;28;20293;-69
2022/03/03 09:35:50;;;;;;;16.00;10.77;;;9.80;31.30;;;;;;4996252;28;20209;-69
2022/03/03 09:38:17;;;;;;;14.48;9.98;;;10.00;31.30;;;;;;4996136;28;20219;-69
2022/03/03 09:40:45;;;;;;;12.18;8.90;;;10.20;31.10;;;;;;4995888;28;20662;-69
2022/03/03 09:43:12;;;;;;;11.90;9.07;;;10.40;30.50;;;;;;4996089;28;20234;-69
2022/03/03 09:45:40;;;;;;;10.35;8.07;;;10.60;29.90;;;;;;4996102;28;20203;-69
2022/03/03 09:48:09;;;;;;;9.57;7.72;;;10.80;29.90;;;;;;4995927;28;20261;-69
2022/03/03 09:50:37;;;;;;;15.65;11.13;;;10.90;29.70;;;;;;4996181;28;20298;-70
2022/03/03 09:53:06;;;;;;;14.27;9.35;;;10.90;28.80;;;;;;4995734;28;20211;-69
2022/03/03 09:55:34;;;;;;;15.88;10.20;;;10.80;29.10;;;;;;4995835;28;20287;-69
2022/03/03 09:58:01;;;;;;;12.25;9.77;;;10.60;29.70;;;;;;4995755;28;20605;-69
2022/03/03 10:00:32;;;;;;;16.38;11.20;;;10.60;29.80;;;;;;4995525;28;20297;-69
2022/03/03 10:03:08;;;;;;;18.90;11.65;;;10.40;29.70;;;;;;4996137;28;20235;-69
2022/03/03 10:05:37;;;;;;;15.15;10.65;;;10.20;29.50;;;;;;4995984;28;20293;-70
2022/03/03 10:08:07;;;;;;;13.80;10.30;;;9.90;30.00;;;;;;4995804;28;20222;-69
2022/03/03 10:10:35;;;;;;;14.05;8.93;;;9.80;31.20;;;;;;4995369;28;20691;-69
2022/03/03 10:13:02;;;;;;;16.33;10.88;;;9.80;31.50;;;;;;4995368;28;20293;-69
2022/03/03 10:15:30;;;;;;;19.15;11.50;;;9.80;30.60;;;;;;4995376;28;20195;-69
2022/03/03 10:17:59;;;;;;;19.13;11.25;;;9.60;31.00;;;;;;4995266;28;20595;-69
2022/03/03 10:20:28;;;;;;;14.60;9.85;;;9.50;31.30;;;;;;4995200;28;20293;-69
2022/03/03 10:22:58;;;;;;;11.35;8.57;;;9.40;31.00;;;;;;4995262;28;20209;-69
2022/03/03 10:25:31;;;;;;;14.05;8.30;;;9.40;31.10;;;;;;4995222;28;20226;-69
2022/03/03 10:28:05;;;;;;;10.75;7.35;;;9.40;29.90;;;;;;4994849;28;20606;-68
2022/03/03 10:30:52;;;;;;;13.20;7.97;;;9.40;30.80;;;;;;4995271;28;20193;-68
2022/03/03 10:33:20;;;;;;;15.63;9.23;;;9.60;30.50;;;;;;4995244;28;20210;-68
2022/03/03 10:36:09;;;;;;;12.75;7.57;;;9.70;29.90;;;;;;4994756;28;20203;-69
2022/03/03 10:38:54;;;;;;;8.65;6.28;;;9.70;28.50;;;;;;4994926;28;20222;-69
2022/03/03 10:41:29;;;;;;;7.78;5.85;;;9.80;27.10;;;;;;4994559;28;20203;-69
2022/03/03 10:43:56;;;;;;;7.60;5.43;;;9.90;27.30;;;;;;4994826;28;20253;-68
2022/03/03 10:46:22;;;;;;;7.72;5.53;;;9.90;27.00;;;;;;4994810;28;20206;-68
2022/03/03 10:48:49;;;;;;;7.90;5.55;;;9.80;25.70;;;;;;4994703;28;20218;-68
2022/03/03 10:51:19;;;;;;;7.18;4.63;;;9.80;25.10;;;;;;4994536;28;20658;-68
2022/03/03 10:53:46;;;;;;;6.40;4.50;;;9.70;24.50;;;;;;4994858;28;20206;-68
2022/03/03 10:56:17;;;;;;;7.22;5.18;;;9.70;24.50;;;;;;4995099;28;20206;-68
2022/03/03 10:58:45;;;;;;;5.30;4.60;;;9.70;25.20;;;;;;4994717;28;20710;-68
2022/03/03 11:01:12;;;;;;;6.03;4.82;;;9.70;26.00;;;;;;4994479;28;20209;-68
2022/03/03 11:03:40;;;;;;;5.28;4.45;;;9.70;26.00;;;;;;4994479;28;20205;-68
2022/03/03 11:06:08;;;;;;;5.10;3.92;;;9.70;25.40;;;;;;4994502;28;20285;-67
2022/03/03 11:08:36;;;;;;;5.65;4.18;;;9.70;25.40;;;;;;4994047;28;20596;-68
2022/03/03 11:11:04;;;;;;;7.70;5.35;;;9.70;26.00;;;;;;4994418;28;20306;-68
2022/03/03 11:13:32;;;;;;;4.57;4.18;;;9.70;26.00;;;;;;4994729;28;20203;-68
2022/03/03 11:15:59;;;;;;;4.00;3.65;;;9.70;26.20;;;;;;4994236;28;20662;-68
2022/03/03 11:18:26;;;;;;;5.07;4.47;;;9.70;26.00;;;;;;4994532;28;20338;-68
2022/03/03 11:20:53;;;;;;;11.60;6.22;;;9.70;26.10;;;;;;4994504;28;20692;-68
2022/03/03 11:23:21;;;;;;;9.68;6.65;;;9.70;26.40;;;;;;4993960;28;20684;-68
2022/03/03 11:25:51;;;;;;;11.27;7.50;;;9.70;26.60;;;;;;4994045;28;20346;-68
2022/03/03 11:28:19;;;;;;;11.10;7.70;;;9.70;26.50;;;;;;4993793;28;20598;-67
2022/03/03 11:30:47;;;;;;;11.40;7.40;;;9.70;26.80;;;;;;4993694;28;20206;-67
2022/03/03 11:33:26;;;;;;;9.80;6.60;;;9.70;26.40;;;;;;5018634;23;20231;-70
2022/03/03 11:35:58;;;;;;;12.25;7.25;;;9.80;26.20;;;;;;4994120;28;20185;-69
2022/03/03 11:38:27;;;;;;;9.07;6.07;;;9.80;26.00;;;;;;4993790;28;20218;-69
2022/03/03 11:40:58;;;;;;;9.07;5.70;;;9.80;26.10;;;;;;4994091;28;20286;-69
2022/03/03 11:43:26;;;;;;;9.00;5.80;;;9.80;26.40;;;;;;4993607;28;20229;-69
2022/03/03 11:45:55;;;;;;;6.07;4.65;;;9.90;26.20;;;;;;4993817;28;20222;-69
2022/03/03 11:48:23;;;;;;;7.70;5.72;;;9.90;26.40;;;;;;4993881;28;20238;-69
2022/03/03 11:50:52;;;;;;;9.93;6.18;;;9.90;26.70;;;;;;4994028;28;20285;-69
2022/03/03 11:53:21;;;;;;;9.40;6.20;;;9.90;26.70;;;;;;4996932;28;20230;-69
2022/03/03 11:55:50;;;;;;;9.57;6.03;;;10.00;26.10;;;;;;4998192;28;20233;-69
2022/03/03 11:58:21;;;;;;;9.20;6.45;;;10.10;26.10;;;;;;4997952;28;20209;-69
2022/03/03 12:01:05;;;;;;;8.57;6.00;;;10.20;26.00;;;;;;4997932;28;20302;-69
2022/03/03 12:03:33;;;;;;;8.40;5.63;;;10.20;25.90;;;;;;4997938;28;20230;-69
2022/03/03 12:06:05;;;;;;;8.52;6.00;;;10.20;26.30;;;;;;4997626;28;20588;-69
2022/03/03 12:08:37;;;;;;;10.55;7.15;;;10.30;26.10;;;;;;4997913;28;20561;-69
2022/03/03 12:11:09;;;;;;;9.85;7.07;;;10.20;25.60;;;;;;4997903;28;20229;-69
2022/03/03 12:13:47;;;;;;;8.48;6.40;;;10.20;25.40;;;;;;4997811;28;20296;-68
2022/03/03 12:16:30;;;;;;;10.82;6.20;;;10.20;24.80;;;;;;4997815;28;20189;-69
2022/03/03 12:19:14;;;;;;;8.98;6.25;;;10.20;24.90;;;;;;4997856;28;20287;-69
2022/03/03 12:21:43;;;;;;;9.23;6.15;;;10.20;25.30;;;;;;4997472;28;20187;-69
2022/03/03 12:24:34;;;;;;;9.43;5.82;;;10.20;25.30;;;;;;4997165;28;20229;-68
2022/03/03 12:27:17;;;;;;;10.15;6.68;;;10.30;25.30;;;;;;4997591;28;20187;-69
2022/03/03 12:29:52;;;;;;;8.13;6.20;;;10.30;24.40;;;;;;4995037;28;20234;-70
2022/03/03 12:32:46;;;;;;;7.55;5.93;;;10.30;24.00;;;;;;4997098;28;20332;-69
2022/03/03 12:35:26;;;;;;;7.32;4.97;;;10.30;24.10;;;;;;4962611;28;20205;-69
2022/03/03 12:37:53;;;;;;;6.25;4.55;;;10.40;24.00;;;;;;4997453;28;20241;-69
2022/03/03 12:40:25;;;;;;;6.70;5.30;;;10.40;23.90;;;;;;4997317;28;20289;-69
2022/03/03 12:42:52;;;;;;;5.72;4.03;;;10.40;22.80;;;;;;4997259;28;20277;-69
2022/03/03 12:45:22;;;;;;;5.50;4.35;;;10.40;23.20;;;;;;4997141;28;20317;-69
2022/03/03 12:47:51;;;;;;;5.35;4.22;;;10.40;23.20;;;;;;4997219;28;20209;-68
2022/03/03 12:50:21;;;;;;;7.90;5.20;;;10.50;23.20;;;;;;4997164;28;20234;-68
2022/03/03 12:53:01;;;;;;;9.50;5.55;;;10.50;23.20;;;;;;4996754;28;20226;-68
2022/03/03 12:55:31;;;;;;;7.22;4.95;;;10.50;22.90;;;;;;4996738;28;20182;-68
2022/03/03 12:57:59;;;;;;;6.75;4.75;;;10.50;22.60;;;;;;4996711;28;20732;-68
2022/03/03 13:00:28;;;;;;;6.18;4.22;;;10.60;22.60;;;;;;4996637;28;20203;-68
2022/03/03 13:02:57;;;;;;;6.68;4.40;;;10.50;22.50;;;;;;4996214;28;20222;-68
2022/03/03 13:05:36;;;;;;;4.03;3.63;;;10.50;22.10;;;;;;4996494;28;20713;-69
2022/03/03 13:08:05;;;;;;;5.75;4.57;;;10.60;21.90;;;;;;4996860;28;20201;-69
2022/03/03 13:10:34;;;;;;;6.30;4.75;;;10.60;21.80;;;;;;4996366;28;20742;-69
2022/03/03 13:13:04;;;;;;;5.00;4.03;;;10.60;21.80;;;;;;4996424;28;20230;-69
2022/03/03 13:15:34;;;;;;;5.10;3.95;;;10.60;21.90;;;;;;4996572;28;20209;-70
2022/03/03 13:18:05;;;;;;;4.15;3.50;;;10.60;21.80;;;;;;4996342;28;20631;-70
2022/03/03 13:20:34;;;;;;;4.45;3.28;;;10.70;21.90;;;;;;4996285;28;20191;-70
2022/03/03 13:23:02;;;;;;;3.75;2.72;;;10.60;21.90;;;;;;4996492;28;20223;-69
2022/03/03 13:25:29;;;;;;;2.85;2.65;;;10.70;22.40;;;;;;4996523;28;20218;-69
2022/03/03 13:27:57;;;;;;;2.67;2.47;;;10.80;22.70;;;;;;4996601;28;20209;-70
2022/03/03 13:30:24;;;;;;;2.38;2.28;;;10.80;22.20;;;;;;4996073;28;20690;-69
2022/03/03 13:32:52;;;;;;;2.60;2.30;;;10.80;22.00;;;;;;4996055;28;20230;-69
2022/03/03 13:35:23;;;;;;;3.20;2.90;;;10.80;22.00;;;;;;4996027;28;20676;-69
2022/03/03 13:37:51;;;;;;;4.45;3.45;;;10.80;22.00;;;;;;4996812;28;20560;-69
2022/03/03 13:40:22;;;;;;;3.75;3.40;;;10.80;22.00;;;;;;4996166;28;20203;-69
2022/03/03 13:42:53;;;;;;;3.03;2.75;;;10.80;22.00;;;;;;4995791;28;20222;-68
2022/03/03 13:45:26;;;;;;;3.38;2.88;;;10.80;22.00;;;;;;4995752;28;20217;-68
2022/03/03 13:48:08;;;;;;;2.38;2.17;;;10.80;22.20;;;;;;4995857;28;20557;-70
2022/03/03 13:50:36;;;;;;;3.80;2.60;;;10.90;22.10;;;;;;4996656;28;20206;-69
2022/03/03 13:53:15;;;;;;;1.90;1.80;;;10.90;22.30;;;;;;4995832;28;20697;-69
2022/03/03 13:55:42;;;;;;;2.45;2.22;;;10.90;22.30;;;;;;4995902;28;20198;-68
2022/03/03 13:58:09;;;;;;;3.10;2.90;;;10.80;22.30;;;;;;4995902;28;20249;-68
2022/03/03 14:00:39;;;;;;;5.22;2.83;;;10.90;22.10;;;;;;4995878;28;20198;-68
2022/03/03 14:03:12;;;;;;;3.28;2.92;;;10.90;22.10;;;;;;4995488;28;20563;-69
2022/03/03 14:05:42;;;;;;;4.00;3.08;;;10.80;22.00;;;;;;4995704;28;20206;-69
2022/03/03 14:08:24;;;;;;;5.95;4.38;;;10.90;22.00;;;;;;4995840;28;20187;-69
2022/03/03 14:10:55;;;;;;;7.03;4.03;;;10.90;22.10;;;;;;4995389;28;20227;-68
2022/03/03 14:13:23;;;;;;;4.78;3.65;;;10.90;22.00;;;;;;4995293;28;20258;-68
2022/03/03 14:15:52;;;;;;;4.75;3.40;;;10.90;22.00;;;;;;4994509;28;20198;-68
2022/03/03 14:18:21;;;;;;;2.80;2.40;;;10.90;22.00;;;;;;4995179;28;20662;-69
2022/03/03 14:20:49;;;;;;;3.30;2.42;;;10.90;22.10;;;;;;4995488;28;20238;-69
2022/03/03 14:23:19;;;;;;;3.28;2.65;;;10.90;22.00;;;;;;4995746;28;20226;-69
2022/03/03 14:25:46;;;;;;;5.63;3.80;;;10.90;22.50;;;;;;4995604;28;20313;-69
2022/03/03 14:28:13;;;;;;;6.40;4.25;;;10.80;22.00;;;;;;4995278;28;20202;-69
2022/03/03 14:30:40;;;;;;;5.78;4.10;;;10.80;22.30;;;;;;4995072;28;20677;-69
2022/03/03 14:33:07;;;;;;;4.95;3.70;;;10.80;22.50;;;;;;4994652;28;20395;-69
2022/03/03 14:35:35;;;;;;;5.80;4.55;;;10.80;22.60;;;;;;4994824;28;20625;-69
2022/03/03 14:38:02;;;;;;;5.70;3.90;;;10.80;22.60;;;;;;4994802;28;20653;-69
2022/03/03 14:40:29;;;;;;;5.95;3.72;;;10.80;22.60;;;;;;4995062;28;20213;-69
2022/03/03 14:42:56;;;;;;;5.32;4.22;;;10.80;22.60;;;;;;4994966;28;20314;-69
2022/03/03 14:45:23;;;;;;;4.30;3.50;;;10.80;22.50;;;;;;4994613;28;20753;-69
2022/03/03 14:47:54;;;;;;;6.28;4.63;;;10.80;22.40;;;;;;4994740;28;20206;-69
2022/03/03 14:50:22;;;;;;;4.88;3.78;;;10.80;22.10;;;;;;4994692;28;20589;-69
2022/03/03 14:52:50;;;;;;;4.93;3.83;;;10.80;22.00;;;;;;4994773;28;20226;-69
2022/03/03 14:55:17;;;;;;;3.35;2.90;;;10.80;22.00;;;;;;4994715;28;20241;-69
2022/03/03 14:57:44;;;;;;;3.30;2.75;;;10.80;22.40;;;;;;4994890;28;20205;-69
2022/03/03 15:00:13;;;;;;;4.35;2.92;;;10.80;22.80;;;;;;4994769;28;20203;-69
2022/03/03 15:02:40;;;;;;;3.28;2.63;;;10.80;22.90;;;;;;4994706;28;20222;-69
2022/03/03 15:05:08;;;;;;;2.55;2.35;;;10.80;23.00;;;;;;4994695;28;20206;-68
2022/03/03 15:07:34;;;;;;;3.00;2.70;;;10.70;23.00;;;;;;4994635;28;20289;-68
2022/03/03 15:10:04;;;;;;;4.53;2.90;;;10.70;23.50;;;;;;4994422;28;20199;-69
2022/03/03 15:12:31;;;;;;;3.63;3.00;;;10.70;23.80;;;;;;4994554;28;20226;-69
2022/03/03 15:14:57;;;;;;;5.75;4.13;;;10.70;23.70;;;;;;4994591;28;20209;-69
2022/03/03 15:17:24;;;;;;;5.70;3.70;;;10.60;24.00;;;;;;4994589;28;20289;-69
2022/03/03 15:19:51;;;;;;;5.15;3.28;;;10.60;24.40;;;;;;4994260;28;20193;-69
2022/03/03 15:22:19;;;;;;;3.40;3.05;;;10.60;24.70;;;;;;4994879;28;20233;-69
2022/03/03 15:24:45;;;;;;;5.35;3.83;;;10.50;25.00;;;;;;4994418;28;20206;-69
2022/03/03 15:27:14;;;;;;;4.40;3.47;;;10.50;25.20;;;;;;4994514;28;20314;-69
2022/03/03 15:29:41;;;;;;;4.55;3.55;;;10.40;25.40;;;;;;4997316;28;20237;-68
2022/03/03 15:32:09;;;;;;;3.95;3.40;;;10.40;25.60;;;;;;4998088;28;20313;-68
2022/03/03 15:37:21;;;;;;;4.75;3.42;;;10.30;25.70;;;;;;5000124;28;20186;-68
2022/03/03 15:39:48;;;;;;;3.30;2.95;;;10.20;25.50;;;;;;4999335;28;20214;-68
2022/03/03 15:42:18;;;;;;;4.93;3.03;;;10.20;25.50;;;;;;4998506;28;20277;-68
2022/03/03 15:44:48;;;;;;;4.78;3.47;;;10.10;25.30;;;;;;4997431;28;20605;-68
2022/03/03 15:47:19;;;;;;;3.17;2.95;;;10.10;25.40;;;;;;4998589;28;20357;-71
2022/03/03 15:49:46;;;;;;;3.63;2.78;;;10.10;25.40;;;;;;4997599;28;20198;-69
2022/03/03 15:52:14;;;;;;;4.28;3.30;;;10.00;25.20;;;;;;4997818;28;20281;-72
2022/03/03 15:54:41;;;;;;;5.90;4.10;;;9.90;25.60;;;;;;4998035;28;20662;-71
2022/03/03 15:57:09;;;;;;;5.20;3.55;;;9.90;25.60;;;;;;4998322;28;20203;-70
2022/03/03 15:59:38;;;;;;;4.35;3.55;;;9.80;25.60;;;;;;4998073;28;20202;-71
2022/03/03 16:02:06;;;;;;;4.28;3.42;;;9.80;25.80;;;;;;4998434;28;20206;-70
2022/03/03 16:04:35;;;;;;;7.57;4.65;;;9.80;26.00;;;;;;4997824;28;20214;-69
2022/03/03 16:07:03;;;;;;;6.00;4.50;;;9.70;26.40;;;;;;4996079;28;20226;-70
2022/03/03 16:09:35;;;;;;;5.03;3.88;;;9.70;26.00;;;;;;4994023;28;20206;-69
2022/03/03 16:12:03;;;;;;;5.03;4.00;;;9.70;25.70;;;;;;4993545;28;20630;-69
2022/03/03 16:14:30;;;;;;;4.25;3.78;;;9.60;24.90;;;;;;4993885;28;20213;-69
2022/03/03 16:16:59;;;;;;;4.18;3.22;;;9.60;24.60;;;;;;4994130;28;20625;-68
2022/03/03 16:19:26;;;;;;;4.35;3.33;;;9.50;24.50;;;;;;4993509;28;20321;-68
2022/03/03 16:21:53;;;;;;;2.40;2.22;;;9.40;24.30;;;;;;4993734;28;20313;-69
2022/03/03 16:24:20;;;;;;;3.17;2.83;;;9.40;24.40;;;;;;4993795;28;20245;-68
2022/03/03 16:26:47;;;;;;;3.30;2.72;;;9.30;24.40;;;;;;4993734;28;20226;-68
2022/03/03 16:29:14;;;;;;;2.80;2.50;;;9.30;24.30;;;;;;4993855;28;20234;-68
2022/03/03 16:32:06;;;;;;;5.10;2.83;;;9.20;24.30;;;;;;4993685;28;20214;-69
2022/03/03 16:34:35;;;;;;;4.40;2.60;;;9.10;24.40;;;;;;4993623;28;20627;-69
2022/03/03 16:37:02;;;;;;;3.38;3.05;;;9.10;24.60;;;;;;4993941;28;20205;-69
2022/03/03 16:39:29;;;;;;;4.28;3.10;;;9.00;24.80;;;;;;4997254;28;20207;-69
2022/03/03 16:41:56;;;;;;;3.00;2.72;;;8.90;24.90;;;;;;4997375;28;20234;-69
2022/03/03 16:44:23;;;;;;;2.67;2.47;;;8.90;25.00;;;;;;4997278;28;20206;-69
2022/03/03 16:46:52;;;;;;;3.20;2.90;;;8.90;25.20;;;;;;4996907;28;20775;-69
2022/03/03 16:49:20;;;;;;;5.60;3.33;;;8.80;25.50;;;;;;4997173;28;20206;-69
2022/03/03 16:51:47;;;;;;;4.13;3.15;;;8.80;25.50;;;;;;4997304;28;20233;-69
2022/03/03 16:54:14;;;;;;;2.88;2.60;;;8.70;25.80;;;;;;4998036;28;20206;-69
2022/03/03 16:56:42;;;;;;;3.35;2.45;;;8.60;25.90;;;;;;4998024;28;20271;-68
2022/03/03 16:59:10;;;;;;;4.20;2.97;;;8.60;26.20;;;;;;4997165;28;20688;-68
2022/03/03 17:01:38;;;;;;;3.05;2.72;;;8.50;27.60;;;;;;4997146;28;20199;-69
2022/03/03 17:04:05;;;;;;;2.75;2.28;;;8.30;28.80;;;;;;4996753;28;20313;-69
2022/03/03 17:06:34;;;;;;;2.92;2.67;;;8.20;29.40;;;;;;4996841;28;20581;-68
2022/03/03 17:09:02;;;;;;;2.75;2.50;;;8.00;29.90;;;;;;4996892;28;20237;-69
2022/03/03 17:11:30;;;;;;;2.75;2.58;;;7.80;30.50;;;;;;4996715;28;20681;-69
2022/03/03 17:13:57;;;;;;;2.28;2.08;;;7.60;30.90;;;;;;4996792;28;20246;-69
2022/03/03 17:16:25;;;;;;;2.38;2.28;;;7.50;31.10;;;;;;4996719;28;20198;-69
2022/03/03 17:18:52;;;;;;;2.58;2.38;;;7.40;32.00;;;;;;4996646;28;20202;-69
2022/03/03 17:21:20;;;;;;;2.78;2.40;;;7.20;32.90;;;;;;4996618;28;20211;-69
2022/03/03 17:23:48;;;;;;;3.17;2.60;;;7.00;33.60;;;;;;4996234;28;20229;-69
2022/03/03 17:26:16;;;;;;;8.70;6.10;;;6.90;34.30;;;;;;4996474;28;20391;-69
2022/03/03 17:28:43;;;;;;;7.65;5.43;;;6.80;35.00;;;;;;4996231;28;20203;-69
2022/03/03 17:31:10;;;;;;;4.65;4.10;;;6.70;35.70;;;;;;4996481;28;20209;-68
2022/03/03 17:33:37;;;;;;;5.22;4.35;;;6.60;36.50;;;;;;5019942;23;20321;-67
2022/03/03 17:36:04;;;;;;;3.75;3.35;;;6.50;37.30;;;;;;4996463;28;20199;-67
2022/03/03 17:38:32;;;;;;;4.95;4.22;;;6.40;38.40;;;;;;4996393;28;20285;-67
2022/03/03 17:41:01;;;;;;;3.92;3.30;;;6.30;39.30;;;;;;4996111;28;20297;-67
2022/03/03 17:43:28;;;;;;;4.15;3.65;;;6.10;40.40;;;;;;4995705;28;20772;-67
2022/03/03 17:45:57;;;;;;;4.97;3.38;;;5.90;41.70;;;;;;4995992;28;20213;-67
2022/03/03 17:48:24;;;;;;;3.22;2.92;;;5.80;43.10;;;;;;4996273;28;20203;-67
2022/03/03 17:50:51;;;;;;;3.28;2.85;;;5.70;44.80;;;;;;4995059;28;20229;-67
2022/03/03 17:53:18;;;;;;;3.65;3.10;;;5.50;46.00;;;;;;4995814;28;20222;-67
2022/03/03 17:55:45;;;;;;;3.30;2.97;;;5.40;48.20;;;;;;4995869;28;20207;-67
2022/03/03 17:58:14;;;;;;;2.88;2.67;;;5.30;50.20;;;;;;4995885;28;20238;-67
2022/03/03 18:00:41;;;;;;;2.83;2.63;;;5.10;51.50;;;;;;4995697;28;20697;-67
2022/03/03 18:03:07;;;;;;;3.65;3.35;;;5.00;53.10;;;;;;4995861;28;20313;-67
2022/03/03 18:05:34;;;;;;;3.50;3.20;;;4.90;54.80;;;;;;4995762;28;20320;-66
2022/03/03 18:08:01;;;;;;;3.28;3.03;;;4.80;57.00;;;;;;4995565;28;20310;-67
2022/03/03 18:10:28;;;;;;;3.10;2.90;;;4.70;58.80;;;;;;4995986;28;20210;-66
2022/03/03 18:12:55;;;;;;;3.80;3.50;;;4.60;60.40;;;;;;4995361;28;20222;-67
2022/03/03 18:15:24;;;;;;;4.55;3.50;;;4.50;62.10;;;;;;4995420;28;20289;-67